EW0035 Weather Reports


Display with metric or nautical units.
time (UTC)temp
F
wind
direction
speed
MPH
gust
MPH
rain 1hr
in
rain 24hr
in
rain mn
in
humidity
%
barometer
mb
20240526214958 81 230 7.0 8.0 0.00 0.00 0.00 76 1013.8
20240526214458 81 190 3.0 3.0 0.00 0.00 0.00 77 1013.3
20240526213956 81 307 3.0 5.0 0.00 0.00 0.00 78 1013.1
20240526213456 81 307 3.0 5.0 0.00 0.00 0.00 78 1012.9
20240526212954 81 334 4.0 5.0 0.00 0.00 0.00 80 1012.8
20240526212453 82 224 2.0 2.0 0.00 0.00 0.00 78 1012.9
20240526211953 82 260 3.0 3.0 0.00 0.00 0.00 75 1013.3
20240526211452 82 198 1.0 1.0 0.00 0.00 0.00 76 1013.0
20240526210926 83 229 1.0 1.0 0.00 0.00 0.00 76 1012.9
20240526210424 83 297 3.0 3.0 0.00 0.00 0.00 75 1012.7
20240526205923 83 203 3.0 5.0 0.00 0.00 0.00 73 1012.6
20240526205423 83 271 3.0 5.0 0.00 0.00 0.00 73 1012.2
20240526204921 83 212 4.0 5.0 0.00 0.00 0.00 73 1012.1
20240526204421 83 263 2.0 3.0 0.00 0.00 0.00 73 1012.4
20240526203921 83 260 4.0 5.0 0.00 0.00 0.00 73 1012.1
20240526203420 83 193 3.0 3.0 0.00 0.00 0.00 73 1012.3
20240526202919 83 237 3.0 5.0 0.00 0.00 0.00 73 1012.3
20240526202418 83 225 3.0 5.0 0.00 0.00 0.00 73 1012.2
20240526201918 83 187 2.0 3.0 0.00 0.00 0.00 72 1012.4
20240526201417 83 251 4.0 6.0 0.00 0.00 0.00 73 1012.3
20240526200916 83 208 3.0 3.0 0.00 0.00 0.00 73 1012.7
20240526200415 84 151 3.0 5.0 0.00 0.00 0.00 72 1012.4
20240526195915 84 233 5.0 7.0 0.00 0.00 0.00 71 1012.5
20240526195413 85 219 2.0 3.0 0.00 0.00 0.00 69 1012.7
20240526194911 85 224 3.0 6.0 0.00 0.00 0.00 70 1012.4
20240526194411 86 230 7.0 8.0 0.00 0.00 0.00 67 1012.2
20240526193910 87 200 4.0 6.0 0.00 0.00 0.00 64 1012.3
20240526193407 86 210 4.0 5.0 0.00 0.00 0.00 66 1012.5
20240526192906 87 266 3.0 6.0 0.00 0.00 0.00 65 1012.4
20240526192405 87 246 4.0 6.0 0.00 0.00 0.00 66 1012.5
20240526191904 86 277 4.0 8.0 0.00 0.00 0.00 68 1012.2
20240526191404 85 218 5.0 6.0 0.00 0.00 0.00 69 1012.5
20240526190903 85 234 7.0 11.0 0.00 0.00 0.00 69 1012.1
20240526190401 86 266 5.0 7.0 0.00 0.00 0.00 68 1012.1
20240526185900 86 227 4.0 5.0 0.00 0.00 0.00 69 1012.3
20240526185359 86 226 6.0 8.0 0.00 0.00 0.00 68 1012.4
20240526184857 85 207 5.0 6.0 0.00 0.00 0.00 70 1012.3
20240526184355 85 181 6.0 7.0 0.00 0.00 0.00 72 1012.3
20240526183853 85 260 2.0 3.0 0.00 0.00 0.00 74 1012.4
20240526183352 85 233 7.0 9.0 0.00 0.00 0.00 72 1012.7
20240526182851 84 247 5.0 7.0 0.00 0.00 0.00 73 1012.7
20240526182351 84 285 4.0 5.0 0.00 0.00 0.00 73 1012.8
20240526181850 84 226 5.0 6.0 0.00 0.00 0.00 73 1012.9
20240526181348 83 155 2.0 3.0 0.00 0.00 0.00 75 1012.9
20240526180845 83 228 4.0 5.0 0.00 0.00 0.00 75 1013.0
20240526180345 82 207 3.0 3.0 0.00 0.00 0.00 76 1013.3
20240526175845 83 209 2.0 2.0 0.00 0.00 0.00 76 1013.4
20240526175344 83 269 4.0 6.0 0.00 0.00 0.00 74 1013.6
20240526174843 83 196 1.0 1.0 0.00 0.00 0.00 75 1013.5
20240526174341 84 253 3.0 5.0 0.00 0.00 0.00 71 1013.5
20240526173839 82 213 4.0 5.0 0.00 0.00 0.00 75 1013.9
20240526173338 82 198 2.0 2.0 0.00 0.00 0.00 73 1013.8
20240526172836 83 164 1.0 1.0 0.00 0.00 0.00 76 1013.6
20240526172335 83 212 2.0 2.0 0.00 0.00 0.00 73 1013.8
20240526171834 83 242 6.0 8.0 0.00 0.00 0.00 73 1014.2
20240526171333 83 198 3.0 3.0 0.00 0.00 0.00 72 1014.1
20240526170831 82 202 2.0 2.0 0.00 0.00 0.00 75 1013.8
20240526170330 81 183 2.0 3.0 0.00 0.00 0.00 76 1014.5
20240526165830 82 183 0.0 1.0 0.00 0.00 0.00 74 1014.5
20240526165329 82 168 1.0 1.0 0.00 0.00 0.00 74 1014.5
20240526164828 81 143 2.0 2.0 0.00 0.00 0.00 75 1015.0
20240526164327 81 172 0.0 0.0 0.00 0.00 0.00 77 1015.2
20240526163826 80 239 5.0 6.0 0.00 0.00 0.00 76 1015.4
20240526163326 79 222 1.0 1.0 0.00 0.00 0.00 79 1015.7
20240526162824 80 156 2.0 2.0 0.00 0.00 0.00 78 1015.7
20240526162322 80 159 2.0 2.0 0.00 0.00 0.00 78 1015.5
20240526161820 80 234 3.0 5.0 0.00 0.00 0.00 77 1015.7
20240526161320 79 222 2.0 2.0 0.00 0.00 0.00 78 1015.7
20240526160818 80 151 3.0 3.0 0.00 0.00 0.00 78 1015.5
20240526160317 80 257 1.0 2.0 0.00 0.00 0.00 76 1015.4
20240526155813 80 137 2.0 3.0 0.00 0.00 0.00 75 1015.3
20240526155311 79 0 2.0 2.0 0.00 0.00 0.00 80 1015.0
20240526154808 80 199 1.0 1.0 0.00 0.00 0.00 81 1015.0
20240526154308 79 200 1.0 1.0 0.00 0.00 0.00 79 1014.8
20240526153807 79 192 0.0 0.0 0.00 0.00 0.00 79 1014.9
20240526153306 79 341 0.0 1.0 0.00 0.00 0.00 80 1014.9
20240526152806 79 335 1.0 1.0 0.00 0.00 0.00 80 1014.8
20240526152304 79 17 1.0 1.0 0.00 0.00 0.00 79 1014.7
20240526151803 80 190 0.0 0.0 0.00 0.00 0.00 78 1014.6
20240526151302 80 159 0.0 0.0 0.00 0.00 0.00 77 1014.6
20240526150801 79 158 1.0 1.0 0.00 0.00 0.00 81 1014.5
20240526150259 79 170 1.0 1.0 0.00 0.00 0.00 80 1014.3
20240526145758 79 131 0.0 1.0 0.00 0.00 0.00 77 1014.6
20240526145258 79 217 1.0 1.0 0.00 0.00 0.00 78 1014.6
20240526144756 79 199 2.0 2.0 0.00 0.00 0.00 76 1014.8
20240526144253 80 236 1.0 1.0 0.00 0.00 0.00 78 1014.8
20240526143752 79 184 0.0 0.0 0.00 0.00 0.00 77 1014.8
20240526143252 79 126 0.0 0.0 0.00 0.00 0.00 77 1014.6
20240526142751 77 111 1.0 1.0 0.00 0.00 0.00 79 1014.3
20240526142250 77 332 1.0 1.0 0.00 0.00 0.00 81 1014.2
20240526141747 77 166 1.0 1.0 0.00 0.00 0.00 80 1014.5
20240526141246 76 152 0.0 1.0 0.00 0.00 0.00 82 1014.3
20240526140746 76 134 0.0 1.0 0.00 0.00 0.00 83 1014.1
20240526140245 76 133 1.0 1.0 0.00 0.00 0.00 82 1014.2
20240526135744 76 76 2.0 2.0 0.00 0.00 0.00 81 1014.3
20240526135243 76 119 1.0 2.0 0.00 0.00 0.00 81 1014.3
20240526134742 75 34 2.0 2.0 0.00 0.00 0.00 82 1014.5
20240526134241 75 101 2.0 3.0 0.00 0.00 0.00 83 1014.7
20240526133740 75 127 0.0 0.0 0.00 0.00 0.00 84 1014.5
20240526133238 74 132 1.0 1.0 0.00 0.00 0.00 86 1014.9
20240526132737 73 134 1.0 1.0 0.00 0.00 0.00 87 1014.9
20240526132237 73 131 1.0 1.0 0.00 0.00 0.00 88 1014.8
20240526131735 73 130 1.0 1.0 0.00 0.00 0.00 88 1015.1
20240526131234 72 147 0.0 1.0 0.00 0.00 0.00 89 1015.0
20240526130733 71 151 0.0 0.0 0.00 0.00 0.00 90 1014.9
20240526130232 71 265 1.0 1.0 0.00 0.00 0.00 92 1015.2
20240526125732 70 109 0.0 1.0 0.00 0.00 0.00 91 1015.1
20240526125231 70 174 0.0 1.0 0.00 0.00 0.00 91 1015.1
20240526124728 70 128 1.0 1.0 0.00 0.00 0.00 92 1014.9
20240526124227 69 38 1.0 1.0 0.00 0.00 0.00 93 1015.0
20240526123726 69 66 1.0 1.0 0.00 0.00 0.00 93 1014.8
20240526123224 69 339 0.0 1.0 0.00 0.00 0.00 94 1015.1
20240526122724 69 78 3.0 3.0 0.00 0.00 0.00 94 1014.7
20240526122223 68 71 1.0 2.0 0.00 0.00 0.00 95 1014.8
20240526121722 68 61 1.0 1.0 0.00 0.00 0.00 95 1014.7
20240526121220 68 96 2.0 2.0 0.00 0.00 0.00 95 1014.6
20240526120720 68 54 3.0 5.0 0.00 0.00 0.00 96 1014.9
20240526120218 67 95 0.0 0.0 0.00 0.00 0.00 97 1014.8
20240526115718 67 82 0.0 1.0 0.00 0.00 0.00 98 1014.8
20240526115216 66 118 0.0 0.0 0.00 0.00 0.00 99 1015.1
20240526114715 66 147 1.0 1.0 0.00 0.00 0.00 99 1014.8
20240526114214 66 81 0.0 1.0 0.00 0.00 0.00 99 1014.8
20240526113712 65 69 0.0 1.0 0.00 0.00 0.00 99 1014.8
20240526113209 65 122 0.0 0.0 0.00 0.00 0.00 99 1014.8
20240526112710 65 126 0.0 0.0 0.00 0.00 0.00 99 1015.0
20240526112208 65 116 0.0 1.0 0.00 0.00 0.00 99 1014.9
20240526111707 65 125 1.0 1.0 0.00 0.00 0.00 99 1014.8
20240526111206 65 92 0.0 1.0 0.00 0.00 0.00 99 1015.0
20240526110705 65 102 0.0 1.0 0.00 0.00 0.00 99 1014.8
20240526110204 65 99 1.0 1.0 0.00 0.00 0.00 99 1015.2
20240526105703 65 135 0.0 1.0 0.00 0.00 0.00 99 1014.7
20240526105201 65 351 1.0 1.0 0.00 0.00 0.00 99 1014.6
20240526104701 65 132 0.0 0.0 0.00 0.00 0.00 99 1014.5
20240526104159 65 110 0.0 0.0 0.00 0.00 0.00 99 1014.6
20240526103658 65 132 0.0 0.0 0.00 0.00 0.00 99 1014.3
20240526103157 65 109 1.0 1.0 0.00 0.00 0.00 99 1014.2
20240526102655 65 102 0.0 1.0 0.00 0.00 0.00 99 1014.3
20240526102154 64 109 0.0 0.0 0.00 0.00 0.00 99 1014.3
20240526101653 64 110 0.0 0.0 0.00 0.00 0.00 99 1014.3
20240526101153 64 134 0.0 0.0 0.00 0.00 0.00 99 1014.3
20240526100651 64 133 0.0 0.0 0.00 0.00 0.00 99 1014.2
20240526100150 64 144 0.0 0.0 0.00 0.00 0.00 99 1013.8
20240526095649 64 144 0.0 0.0 0.00 0.00 0.00 99 1013.9
20240526095149 64 159 0.0 0.0 0.00 0.00 0.00 99 1013.9
20240526094649 65 154 0.0 0.0 0.00 0.00 0.00 99 1013.8
20240526094149 65 142 0.0 0.0 0.00 0.00 0.00 99 1014.1
20240526093647 65 126 0.0 0.0 0.00 0.00 0.00 99 1013.7
20240526093147 65 128 0.0 0.0 0.00 0.00 0.00 99 1014.1
20240526092645 65 130 0.0 0.0 0.00 0.00 0.00 99 1014.2
20240526092143 65 133 0.0 0.0 0.00 0.00 0.00 99 1014.3
20240526091642 65 130 0.0 0.0 0.00 0.00 0.00 99 1014.4
20240526091142 65 133 0.0 0.0 0.00 0.00 0.00 99 1014.2
20240526090641 65 155 0.0 0.0 0.00 0.00 0.00 99 1014.1
20240526090140 66 157 0.0 0.0 0.00 0.00 0.00 99 1014.2
20240526085639 66 137 0.0 0.0 0.00 0.00 0.00 99 1014.3
20240526085139 66 162 0.0 0.0 0.00 0.00 0.00 99 1014.6
20240526084639 66 126 0.0 0.0 0.00 0.00 0.00 99 1014.4
20240526084138 66 100 0.0 0.0 0.00 0.00 0.00 99 1014.4
20240526083636 66 119 0.0 0.0 0.00 0.00 0.00 99 1014.3
20240526083135 66 103 0.0 0.0 0.00 0.00 0.00 99 1014.4
20240526082635 66 128 0.0 0.0 0.00 0.00 0.00 98 1014.5
20240526082135 66 133 0.0 0.0 0.00 0.00 0.00 98 1014.5
20240526081633 66 114 0.0 0.0 0.00 0.00 0.00 98 1014.3
20240526081131 66 128 0.0 0.0 0.00 0.00 0.00 98 1014.3
20240526080631 66 134 0.0 0.0 0.00 0.00 0.00 98 1014.3
20240526080131 66 125 0.0 0.0 0.00 0.00 0.00 98 1014.4
20240526075629 66 122 0.0 0.0 0.00 0.00 0.00 98 1014.4
20240526075128 66 104 0.0 0.0 0.00 0.00 0.00 98 1014.4
20240526074628 66 127 0.0 0.0 0.00 0.00 0.00 98 1014.3
20240526074126 66 120 0.0 0.0 0.00 0.00 0.00 97 1014.4
20240526073624 67 70 1.0 1.0 0.00 0.00 0.00 97 1014.1
20240526073123 67 116 0.0 0.0 0.00 0.00 0.00 97 1014.4
20240526072621 67 107 1.0 1.0 0.00 0.00 0.00 97 1014.4
20240526072120 67 126 0.0 0.0 0.00 0.00 0.00 97 1014.4
20240526071619 67 129 0.0 0.0 0.00 0.00 0.00 96 1014.6
20240526071119 67 122 0.0 0.0 0.00 0.00 0.00 96 1014.9
20240526070618 67 105 1.0 1.0 0.00 0.00 0.00 96 1014.6
20240526070118 67 98 1.0 1.0 0.00 0.00 0.00 96 1014.6
20240526065617 67 109 0.0 1.0 0.00 0.00 0.00 96 1014.6
20240526065117 67 108 0.0 0.0 0.00 0.00 0.00 96 1014.5
20240526064616 67 85 1.0 1.0 0.00 0.00 0.00 95 1014.8
20240526064115 68 124 0.0 0.0 0.00 0.00 0.00 95 1014.7
20240526063613 68 128 0.0 0.0 0.00 0.00 0.00 94 1014.5
20240526063113 68 125 0.0 0.0 0.00 0.00 0.00 94 1014.7
20240526062612 68 120 0.0 0.0 0.00 0.00 0.00 93 1015.0
20240526062112 68 156 0.0 0.0 0.00 0.00 0.00 92 1015.3
20240526061610 69 109 0.0 0.0 0.00 0.00 0.00 91 1015.1
20240526061108 68 106 0.0 1.0 0.00 0.00 0.00 92 1015.3
20240526060607 68 152 0.0 0.0 0.00 0.00 0.00 92 1015.3
20240526060105 68 97 1.0 1.0 0.00 0.00 0.00 94 1015.2
20240526055603 67 118 0.0 1.0 0.00 0.00 0.00 94 1015.3
20240526055103 67 123 0.0 1.0 0.00 0.00 0.00 94 1015.5
20240526054602 68 224 1.0 1.0 0.00 0.00 0.00 92 1015.7
20240526054100 70 164 0.0 0.0 0.00 0.00 0.00 88 1015.3
20240526053559 70 151 0.0 0.0 0.00 0.00 0.00 86 1015.3
20240526053057 70 144 0.0 0.0 0.00 0.00 0.00 86 1015.0
20240526052556 71 167 0.0 0.0 0.00 0.00 0.00 86 1015.1
20240526052053 71 155 0.0 0.0 0.00 0.00 0.00 85 1015.1
20240526051551 71 143 0.0 0.0 0.00 0.00 0.00 85 1015.0
20240526051050 71 142 0.0 0.0 0.00 0.00 0.00 85 1015.2
20240526050549 71 133 0.0 0.0 0.00 0.00 0.00 86 1015.3
20240526050048 70 121 1.0 1.0 0.00 0.00 0.00 87 1015.5
20240526045546 70 138 0.0 0.0 0.00 0.00 0.00 89 1015.4
20240526045047 70 153 0.0 0.0 0.00 0.00 0.00 87 1015.5
20240526044546 70 141 0.0 0.0 0.00 0.00 0.00 87 1015.5
20240526044045 70 109 1.0 1.0 0.00 0.00 0.00 87 1015.6
20240526043544 70 128 0.0 0.0 0.00 0.00 0.00 88 1015.5
20240526043043 70 152 0.0 0.0 0.00 0.00 0.00 88 1015.6
20240526042540 70 156 0.0 0.0 0.00 0.00 0.00 88 1015.8
20240526042039 70 151 0.0 0.0 0.00 0.00 0.00 87 1015.7
20240526041539 70 139 0.0 0.0 0.00 0.00 0.00 87 1015.6
20240526041037 70 151 0.0 0.0 0.00 0.00 0.00 87 1015.7
20240526040535 70 163 1.0 1.0 0.00 0.00 0.00 86 1015.7
20240526040034 70 137 0.0 0.0 0.00 0.00 0.00 87 1015.7
20240526035533 70 149 0.0 0.0 0.00 2.07 2.07 87 1015.7
20240526035033 71 172 0.0 0.0 0.00 2.07 2.07 86 1015.8
20240526034531 71 157 0.0 0.0 0.00 2.07 2.07 86 1015.8
20240526034031 72 185 0.0 0.0 0.00 2.07 2.07 84 1015.6
20240526033528 73 151 0.0 0.0 0.00 2.07 2.07 80 1015.6
20240526033026 72 116 1.0 1.0 0.00 2.07 2.07 81 1015.7
20240526032523 72 112 1.0 1.0 0.00 2.07 2.07 82 1015.5
20240526032019 72 131 1.0 1.0 0.00 2.07 2.07 83 1015.8
20240526031517 72 145 0.0 0.0 0.00 2.07 2.07 83 1015.9
20240526031016 72 114 1.0 1.0 0.00 2.07 2.07 82 1015.7
20240526030513 72 147 1.0 1.0 0.00 2.07 2.07 82 1015.6
20240526030012 72 148 0.0 0.0 0.00 2.07 2.07 83 1015.5
20240526025509 73 172 0.0 0.0 0.00 2.07 2.07 81 1015.8
20240526025006 73 138 0.0 0.0 0.00 2.07 2.07 80 1015.3
20240526024503 73 132 2.0 2.0 0.00 2.07 2.07 79 1015.1
20240526024001 73 128 2.0 2.0 0.00 2.07 2.07 79 1015.4
20240526023500 73 101 1.0 1.0 0.00 2.07 2.07 80 1015.2
20240526022956 73 140 1.0 1.0 0.00 2.07 2.07 80 1014.9
20240526022455 73 135 1.0 2.0 0.00 2.07 2.07 80 1015.1
20240526021950 74 133 1.0 1.0 0.00 2.07 2.07 79 1015.0
20240526021450 74 133 0.0 1.0 0.00 2.07 2.07 79 1014.9
20240526020947 74 123 1.0 2.0 0.00 2.07 2.07 79 1014.8
20240526020443 74 137 1.0 1.0 0.00 2.07 2.07 79 1014.7
20240526015943 74 113 1.0 2.0 0.00 2.07 2.07 80 1014.8
20240526015442 74 130 2.0 2.0 0.00 2.07 2.07 81 1015.1
20240526014940 74 156 2.0 2.0 0.00 2.07 2.07 81 1015.0
20240526014438 74 144 2.0 2.0 0.00 2.07 2.07 80 1014.8
20240526013937 74 141 0.0 0.0 0.00 2.07 2.07 82 1014.8
20240526013437 74 120 1.0 1.0 0.00 2.07 2.07 82 1014.8
20240526012936 74 153 0.0 1.0 0.00 2.07 2.07 81 1014.9
20240526012436 75 158 0.0 1.0 0.00 2.07 2.07 80 1014.7
20240526011934 75 148 1.0 1.0 0.00 2.07 2.07 80 1014.7
20240526011432 75 132 0.0 1.0 0.00 2.07 2.07 80 1014.6
20240526010930 75 150 1.0 2.0 0.00 2.07 2.07 80 1014.6
20240526010428 75 140 1.0 1.0 0.00 2.07 2.07 79 1014.8
20240526005927 75 148 3.0 3.0 0.00 2.07 2.07 78 1014.5
20240526005426 75 169 1.0 1.0 0.00 2.07 2.07 79 1014.5
20240526004924 75 158 0.0 1.0 0.00 2.07 2.07 79 1014.4
20240526004423 75 168 0.0 0.0 0.00 2.07 2.07 80 1014.4
20240526003922 76 154 0.0 0.0 0.00 2.07 2.07 78 1014.5
20240526003422 76 140 0.0 1.0 0.00 2.07 2.07 78 1014.4
20240526002921 76 156 0.0 0.0 0.00 2.07 2.07 77 1014.1
20240526002420 77 151 0.0 0.0 0.00 2.07 2.07 77 1014.3
20240526001918 77 161 1.0 1.0 0.00 2.07 2.07 77 1014.2
20240526001417 77 149 1.0 1.0 0.00 2.07 2.07 76 1014.3
20240526000916 78 155 1.0 1.0 0.00 2.07 2.07 75 1014.3
20240526000415 78 184 1.0 1.0 0.00 2.07 2.07 73 1014.2
20240525235915 78 169 1.0 1.0 0.00 2.07 2.07 72 1014.1
20240525235414 79 188 0.0 0.0 0.00 2.07 2.07 71 1013.8
20240525234913 79 184 1.0 1.0 0.00 2.07 2.07 70 1014.1
20240525234412 79 174 0.0 0.0 0.00 2.07 2.07 73 1014.3
20240525233912 79 178 0.0 0.0 0.00 2.07 2.07 73 1013.9
20240525233411 79 181 0.0 0.0 0.00 2.07 2.07 73 1013.9
20240525232910 79 175 0.0 1.0 0.00 2.07 2.07 72 1014.1
20240525232408 80 181 0.0 0.0 0.00 2.07 2.07 71 1013.9
20240525231905 80 189 0.0 1.0 0.00 2.07 2.07 70 1013.9
20240525231404 80 232 0.0 1.0 0.00 2.07 2.07 70 1013.9
20240525230904 80 192 1.0 2.0 0.00 2.07 2.07 69 1013.9
20240525230402 81 183 1.0 1.0 0.00 2.07 2.07 69 1013.9
20240525225901 81 198 0.0 1.0 0.00 2.07 2.07 68 1014.2
20240525225359 82 230 1.0 1.0 0.00 2.07 2.07 67 1014.1
20240525224857 81 185 1.0 2.0 0.00 2.07 2.07 68 1013.9
20240525224357 82 202 1.0 1.0 0.00 2.07 2.07 66 1013.8
20240525223855 81 214 2.0 2.0 0.00 2.07 2.07 67 1013.8
20240525223352 82 260 1.0 2.0 0.00 2.07 2.07 66 1014.1
20240525222850 81 245 3.0 3.0 0.00 2.07 2.07 66 1014.1
20240525222350 81 236 5.0 7.0 0.00 2.07 2.07 67 1013.7
20240525221847 81 258 3.0 5.0 0.00 2.07 2.07 67 1013.9
20240525221347 82 235 2.0 3.0 0.00 2.07 2.07 68 1013.9
20240525220846 82 207 2.0 2.0 0.00 2.07 2.07 68 1013.9
20240525220345 81 218 3.0 3.0 0.00 2.07 2.07 69 1014.3
20240525215844 82 237 3.0 3.0 0.00 2.07 2.07 65 1014.2
20240525215343 81 242 2.0 5.0 0.00 2.07 2.07 68 1014.2